»·PEaware :: N123 KLAX-KFAT

N123 :: KLAX-KFAT

FLIGHT INFORMATION

Flight Status: Arrived
Operator: Privately registered:
United States
More flights under this callsign
Pilot: Max W. (2591)
Aircraft: Unknown
(ZZZZ)
More flights by this aircraft type
Origin: KLAX Los Angeles Intl
United States
Destination: KFAT Fresno Yosemite Intl
United States
More flights between these airports :: More routes between these airports
Route: +LADYJ4 CSTRO TTE ALTTA8
File this flight plan on PilotEdge
Remarks:
Altitude:
(Current/Filed)
25,000ft
Speed:
(Current/Filed)
300kts
Departed: 11-Feb-19 09:40 AM
Arrived: 11-Feb-19 10:19 AM
Distance/Time
Traveled:
181nm/0:39
Distance/Time
To Go:
Arrived

Flight Plot

Page will automatically refresh every two minutes.

Flight plan parsing failed; only flown route is shown


Map Options




Map Legend


Flown Route
Filed Route
Departure Airport
Arrival Airport
Navaid (VOR, NDB)
Fix

Horizontal Profiles

Position Reports

Time Latitude Longitude Heading Altitude Ground
Speed
11-Feb-19 09:30 33.946139 -118.400022 165 117ft 0kts
11-Feb-19 09:31 33.946602 -118.400049 346 117ft 19kts
11-Feb-19 09:32 33.948382 -118.400333 305 115ft 0kts
11-Feb-19 09:33 33.948382 -118.400333 305 115ft 0kts
11-Feb-19 09:34 33.948382 -118.400333 305 115ft 0kts
11-Feb-19 09:35 33.948383 -118.400334 305 115ft 0kts
11-Feb-19 09:36 33.949048 -118.400751 7 115ft 3kts
11-Feb-19 09:37 33.949364 -118.399387 50 113ft 0kts
11-Feb-19 09:38 33.949620 -118.399158 9 113ft 7kts
11-Feb-19 09:39 33.948938 -118.424096 263 6076ft 168kts
11-Feb-19 09:40 33.955650 -118.461836 296 17525ft 204kts
11-Feb-19 09:41 34.013877 -118.484071 321 24468ft 249kts
11-Feb-19 09:42 34.092837 -118.519283 325 24730ft 322kts
11-Feb-19 09:43 34.176064 -118.557544 325 24707ft 321kts
11-Feb-19 09:44 34.259303 -118.596068 325 24695ft 321kts
11-Feb-19 09:45 34.342613 -118.634730 325 24695ft 320kts
11-Feb-19 09:46 34.423713 -118.671446 330 24713ft 330kts
11-Feb-19 09:47 34.515857 -118.691246 337 24728ft 338kts
11-Feb-19 09:48 34.608964 -118.709436 337 24720ft 338kts
11-Feb-19 09:49 34.701413 -118.727444 337 24680ft 336kts
11-Feb-19 09:50 34.780566 -118.772887 316 24668ft 309kts
11-Feb-19 09:51 34.855340 -118.824163 316 24666ft 307kts
11-Feb-19 09:52 34.929690 -118.875334 317 24659ft 306kts
11-Feb-19 09:53 35.004008 -118.926581 318 24652ft 308kts
11-Feb-19 09:54 35.078963 -118.978364 319 24645ft 310kts
11-Feb-19 09:55 35.153250 -119.029795 319 24631ft 311kts
11-Feb-19 09:56 35.228200 -119.081780 320 24630ft 311kts
11-Feb-19 09:57 35.303387 -119.134054 320 24630ft 311kts
11-Feb-19 09:58 35.378483 -119.186383 320 24631ft 311kts
11-Feb-19 09:59 35.460458 -119.223111 357 24625ft 346kts
11-Feb-19 10:00 35.554287 -119.186167 14 24644ft 357kts
11-Feb-19 10:01 35.647406 -119.143323 14 24648ft 357kts
11-Feb-19 10:02 35.740407 -119.100421 14 24652ft 357kts
11-Feb-19 10:03 35.833719 -119.057268 14 24654ft 358kts
11-Feb-19 10:04 35.927343 -119.031500 339 24639ft 330kts
11-Feb-19 10:05 36.012071 -119.067507 328 24655ft 320kts
11-Feb-19 10:06 36.095070 -119.107014 328 24654ft 320kts
11-Feb-19 10:07 36.173776 -119.144565 328 24656ft 319kts
11-Feb-19 10:08 36.256139 -119.184020 329 24275ft 331kts
11-Feb-19 10:09 36.342048 -119.225065 330 22470ft 338kts
11-Feb-19 10:10 36.429410 -119.266982 330 20653ft 340kts
11-Feb-19 10:11 36.518231 -119.309972 332 17949ft 350kts
11-Feb-19 10:12 36.585489 -119.383572 298 15554ft 316kts
11-Feb-19 10:13 36.632497 -119.465273 299 12171ft 254kts
11-Feb-19 10:14 36.672029 -119.534548 301 7150ft 252kts
11-Feb-19 10:15 36.713649 -119.607517 305 2628ft 271kts
11-Feb-19 10:16 36.751155 -119.672628 309 2014ft 117kts
11-Feb-19 10:17 36.768860 -119.703535 304 384ft 102kts
11-Feb-19 10:18 36.773486 -119.713801 189 331ft 0kts
11-Feb-19 10:19 36.773486 -119.713801 189 331ft 0kts
11-Feb-19 10:20 36.773486 -119.713801 189 331ft 0kts
11-Feb-19 10:21 36.773486 -119.713801 189 331ft 0kts

Navigation Log

Ident Type
Flight plan parsing failed, navigation log unavailable